Lakewood, Colorado
Current Conditions -  °F | °C
As of 9:46 PM on Friday 28 Nov 2014 (Local Time) from KBJC Reporting Station
Broken Clouds Broken Clouds  
Wind Chill: 14°   Ceiling: 20000
Heat Index: 14°   Visibility: 50mi
Dew Point: -13°   Wind: 16mph
Humidity: 14%   Direction: 290°WNW
Pressure: 29.81"   Gusts: NA
Location:  39.71°N, 105.08°W
Report Text: KBJC 290446Z 29014KT 50SM BKN200 14/M13 A2981 RMK LAST
Loading
Personal Weather Stations






























Interactive Weather Map New forecast layout! Learn more

10-Day Weather Forecast

Advertisements
Track Severe Weather on mobile